createdAt,value
2018-11-02T00:00:40.677Z,9.70
2018-11-02T00:03:10.612Z,9.70
2018-11-02T00:05:39.708Z,9.70
2018-11-02T00:08:09.921Z,9.70
2018-11-02T00:10:39.340Z,9.70
2018-11-02T00:13:08.412Z,9.80
2018-11-02T00:15:37.817Z,9.80
2018-11-02T00:18:06.953Z,9.80
2018-11-02T00:20:36.101Z,9.80
2018-11-02T00:23:05.832Z,9.80
2018-11-02T00:25:34.921Z,9.80
2018-11-02T00:28:04.097Z,9.80
2018-11-02T00:30:33.709Z,9.90
2018-11-02T00:33:04.169Z,9.80
2018-11-02T00:35:33.321Z,9.80
2018-11-02T00:38:02.517Z,9.80
2018-11-02T00:40:31.676Z,9.80
2018-11-02T00:43:00.857Z,9.80
2018-11-02T00:45:29.977Z,9.80
2018-11-02T00:47:59.129Z,9.80
2018-11-02T00:50:28.444Z,9.80
2018-11-02T00:52:57.548Z,9.80
2018-11-02T00:55:26.701Z,9.80
2018-11-02T00:57:55.805Z,9.80
2018-11-02T01:00:24.984Z,9.80
2018-11-02T01:02:54.149Z,9.80
2018-11-02T01:05:23.296Z,9.90
2018-11-02T01:07:52.472Z,9.90
2018-11-02T01:10:21.912Z,9.80
2018-11-02T01:12:51.049Z,9.80
2018-11-02T01:15:20.248Z,9.80
2018-11-02T01:17:49.424Z,9.80
2018-11-02T01:20:18.713Z,9.80
2018-11-02T01:22:47.825Z,9.80
2018-11-02T01:25:17.117Z,9.80
2018-11-02T01:27:46.265Z,9.70
2018-11-02T01:30:15.413Z,9.70
2018-11-02T01:32:44.608Z,9.60
2018-11-02T01:35:13.753Z,9.60
2018-11-02T01:37:42.902Z,9.50
2018-11-02T01:40:12.077Z,9.40
2018-11-02T01:42:41.277Z,9.30
2018-11-02T01:45:10.433Z,9.20
2018-11-02T01:47:39.841Z,9.10
2018-11-02T01:50:08.996Z,9.20
2018-11-02T01:52:38.200Z,9.10
2018-11-02T01:55:07.913Z,9.00
2018-11-02T01:57:37.345Z,8.90
2018-11-02T02:00:08.291Z,8.90
2018-11-02T02:02:37.462Z,8.80
2018-11-02T02:05:07.468Z,8.70
2018-11-02T02:07:36.632Z,8.60
2018-11-02T02:10:06.532Z,8.50
2018-11-02T02:12:36.096Z,8.50
2018-11-02T02:15:07.277Z,8.40
2018-11-02T02:17:36.981Z,8.40
2018-11-02T02:20:07.430Z,8.40
2018-11-02T02:22:36.561Z,8.40
2018-11-02T02:25:06.731Z,8.40
2018-11-02T02:27:37.009Z,8.40
2018-11-02T02:30:09.984Z,8.30
2018-11-02T02:32:39.329Z,8.30
2018-11-02T02:35:09.461Z,8.20
2018-11-02T02:37:40.065Z,8.20
2018-11-02T02:40:11.000Z,8.10
2018-11-02T02:42:41.915Z,8.10
2018-11-02T02:45:12.677Z,8.10
2018-11-02T02:47:41.904Z,8.00
2018-11-02T02:50:14.317Z,8.00
2018-11-02T02:52:44.121Z,7.90
2018-11-02T02:55:13.328Z,7.90
2018-11-02T02:57:42.551Z,7.80
2018-11-02T03:00:13.593Z,7.80
2018-11-02T03:02:43.461Z,7.80
2018-11-02T03:05:13.400Z,7.80
2018-11-02T03:07:42.925Z,7.80
2018-11-02T03:10:12.117Z,7.70
2018-11-02T03:12:42.368Z,7.70
2018-11-02T03:15:11.477Z,7.70
2018-11-02T03:17:41.049Z,7.60
2018-11-02T03:20:10.837Z,7.60
2018-11-02T03:22:40.493Z,7.70
2018-11-02T03:25:11.132Z,7.60
2018-11-02T03:27:40.783Z,7.60
2018-11-02T03:30:11.513Z,7.60
2018-11-02T03:32:40.985Z,7.60
2018-11-02T03:35:10.402Z,7.60
2018-11-02T03:37:39.589Z,7.60
2018-11-02T03:40:10.507Z,7.60
2018-11-02T03:42:40.941Z,7.60
2018-11-02T03:45:10.104Z,7.70
2018-11-02T03:47:39.273Z,7.70
2018-11-02T03:50:10.987Z,7.70
2018-11-02T03:52:41.289Z,7.70
2018-11-02T03:55:10.422Z,7.70
2018-11-02T03:57:40.146Z,7.60
2018-11-02T04:00:10.132Z,7.60
2018-11-02T04:02:39.715Z,7.60
2018-11-02T04:05:09.981Z,7.60
2018-11-02T04:07:39.162Z,7.70
2018-11-02T04:10:10.157Z,7.80
2018-11-02T04:12:39.482Z,7.80
2018-11-02T04:15:08.809Z,7.70
2018-11-02T04:17:38.506Z,7.70
2018-11-02T04:20:09.321Z,7.70
2018-11-02T04:22:38.468Z,7.60
2018-11-02T04:25:08.104Z,7.60
2018-11-02T04:27:37.277Z,7.60
2018-11-02T04:30:07.557Z,7.50
2018-11-02T04:32:36.705Z,7.50
2018-11-02T04:35:06.736Z,7.40
2018-11-02T04:37:35.900Z,7.30
2018-11-02T04:40:06.133Z,7.20
2018-11-02T04:42:35.277Z,7.20
2018-11-02T04:45:05.245Z,7.10
2018-11-02T04:47:34.364Z,7.00
2018-11-02T04:50:03.698Z,6.90
2018-11-02T04:52:32.816Z,6.80
2018-11-02T04:55:01.982Z,6.80
2018-11-02T04:57:31.206Z,6.70
2018-11-02T05:00:00.329Z,6.70
2018-11-02T05:02:29.453Z,6.80
2018-11-02T05:04:58.624Z,6.80
2018-11-02T05:07:27.793Z,6.90
2018-11-02T05:09:56.980Z,6.80
2018-11-02T05:12:26.093Z,6.60
2018-11-02T05:14:55.233Z,6.60
2018-11-02T05:17:24.328Z,6.60
2018-11-02T05:19:54.000Z,6.60
2018-11-02T05:22:23.124Z,6.60
2018-11-02T05:24:52.382Z,6.60
2018-11-02T05:27:21.836Z,6.50
2018-11-02T05:29:51.757Z,6.50
2018-11-02T05:32:20.960Z,6.40
2018-11-02T05:34:50.038Z,6.40
2018-11-02T05:37:19.204Z,6.40
2018-11-02T05:39:49.010Z,6.40
2018-11-02T05:42:18.376Z,6.30
2018-11-02T05:44:47.667Z,6.20
2018-11-02T05:47:16.854Z,6.20
2018-11-02T05:49:46.357Z,6.10
2018-11-02T05:52:15.504Z,6.00
2018-11-02T05:54:44.701Z,6.10
2018-11-02T05:57:13.816Z,6.10
2018-11-02T05:59:42.977Z,6.00
2018-11-02T06:02:12.192Z,6.00
2018-11-02T06:04:41.305Z,6.00
2018-11-02T06:07:10.529Z,6.00
2018-11-02T06:09:39.737Z,6.00
2018-11-02T06:12:08.889Z,6.00
2018-11-02T06:14:38.075Z,6.00
2018-11-02T06:17:07.421Z,6.00
2018-11-02T06:19:36.525Z,6.00
2018-11-02T06:22:05.643Z,5.90
2018-11-02T06:24:34.877Z,5.90
2018-11-02T06:27:04.516Z,5.90
2018-11-02T06:29:33.729Z,5.90
2018-11-02T06:32:03.445Z,5.80
2018-11-02T06:34:33.773Z,5.80
2018-11-02T06:37:02.913Z,5.80
2018-11-02T06:39:32.065Z,5.80
2018-11-02T06:42:01.970Z,5.80
2018-11-02T06:44:31.292Z,5.80
2018-11-02T06:47:00.525Z,5.80
2018-11-02T06:49:30.168Z,5.80
2018-11-02T06:51:59.330Z,5.80
2018-11-02T06:54:28.983Z,5.70
2018-11-02T06:56:58.069Z,5.70
2018-11-02T06:59:27.287Z,6.10
2018-11-02T07:01:56.360Z,6.60
2018-11-02T07:04:25.490Z,7.50
2018-11-02T07:06:54.677Z,8.40
2018-11-02T07:09:23.820Z,9.40
2018-11-02T07:11:52.950Z,10.10
2018-11-02T07:14:22.145Z,10.70
2018-11-02T07:16:51.322Z,10.70
2018-11-02T07:19:20.548Z,10.60
2018-11-02T07:21:49.624Z,9.70
2018-11-02T07:24:18.741Z,8.60
2018-11-02T07:26:48.073Z,9.30
2018-11-02T07:29:17.217Z,11.10
2018-11-02T07:31:46.481Z,12.90
2018-11-02T07:34:16.177Z,14.10
2018-11-02T07:36:45.221Z,15.90
2018-11-02T07:39:14.806Z,16.30
2018-11-02T07:41:43.937Z,16.80
2018-11-02T07:44:13.036Z,17.00
2018-11-02T07:46:42.138Z,17.80
2018-11-02T07:49:11.313Z,19.30
2018-11-02T07:51:40.480Z,19.30
2018-11-02T07:54:09.654Z,20.20
2018-11-02T07:56:39.443Z,19.70
2018-11-02T07:59:08.713Z,20.70
2018-11-02T08:01:38.277Z,21.20
2018-11-02T08:04:07.441Z,21.70
2018-11-02T08:06:36.621Z,21.60
2018-11-02T08:09:09.946Z,22.30
2018-11-02T08:11:39.134Z,22.30
2018-11-02T08:14:08.273Z,23.20
2018-11-02T08:16:37.420Z,22.10
2018-11-02T08:19:06.641Z,22.90
2018-11-02T08:21:35.732Z,22.80
2018-11-02T08:24:05.121Z,21.90
2018-11-02T08:26:34.212Z,21.00
2018-11-02T08:29:03.333Z,21.00
2018-11-02T08:31:32.539Z,21.80
2018-11-02T08:34:01.677Z,22.10
2018-11-02T08:36:30.905Z,22.90
2018-11-02T08:39:00.277Z,21.90
2018-11-02T08:41:29.422Z,22.30
2018-11-02T08:43:58.545Z,22.30
2018-11-02T08:46:28.865Z,23.70
2018-11-02T08:48:58.009Z,23.60
2018-11-02T08:51:27.196Z,23.20
2018-11-02T08:53:56.644Z,23.20
2018-11-02T08:56:25.813Z,22.90
2018-11-02T08:58:55.005Z,22.70
2018-11-02T09:01:24.105Z,22.60
2018-11-02T09:03:53.309Z,22.80
2018-11-02T09:06:23.092Z,23.80
2018-11-02T09:08:52.279Z,23.20
2018-11-02T09:11:21.462Z,23.40
2018-11-02T09:13:50.630Z,23.70
2018-11-02T09:16:20.036Z,23.80
2018-11-02T09:18:49.272Z,23.80
2018-11-02T09:21:18.265Z,22.80
2018-11-02T09:23:47.465Z,21.40
2018-11-02T09:26:16.912Z,21.40
2018-11-02T09:28:46.539Z,21.90
2018-11-02T09:31:15.855Z,22.60
2018-11-02T09:33:44.960Z,23.10
2018-11-02T09:36:14.121Z,23.40
2018-11-02T09:38:43.277Z,23.60
2018-11-02T09:41:12.413Z,23.60
2018-11-02T09:43:41.697Z,23.90
2018-11-02T09:46:10.869Z,24.10
2018-11-02T09:48:40.037Z,25.30
2018-11-02T09:51:09.733Z,26.40
2018-11-02T09:53:38.954Z,27.40
2018-11-02T09:56:08.685Z,26.90
2018-11-02T09:58:37.882Z,26.70
2018-11-02T10:01:07.846Z,27.10
2018-11-02T10:03:37.029Z,26.10
2018-11-02T10:06:06.501Z,26.90
2018-11-02T10:08:35.701Z,27.00
2018-11-02T10:11:04.894Z,26.50
2018-11-02T10:13:34.095Z,25.30
2018-11-02T10:16:04.452Z,25.00
2018-11-02T10:18:33.744Z,23.50
2018-11-02T10:21:02.925Z,22.70
2018-11-02T10:23:32.033Z,21.90
2018-11-02T10:26:01.234Z,20.10
2018-11-02T10:28:30.441Z,19.70
2018-11-02T10:31:00.253Z,20.20
2018-11-02T10:33:29.552Z,20.90
2018-11-02T10:35:58.924Z,21.20
2018-11-02T10:38:28.465Z,21.50
2018-11-02T10:40:58.989Z,21.10
2018-11-02T10:43:30.457Z,21.40
2018-11-02T10:46:01.919Z,21.90
2018-11-02T10:48:31.099Z,22.20
2018-11-02T10:51:00.216Z,22.90
2018-11-02T10:53:29.381Z,23.80
2018-11-02T10:55:58.641Z,20.70
2018-11-02T10:58:27.825Z,19.40
2018-11-02T11:01:02.380Z,19.40
2018-11-02T11:03:31.349Z,18.70
2018-11-02T11:06:00.492Z,17.50
2018-11-02T11:08:29.665Z,16.00
2018-11-02T11:10:58.842Z,15.60
2018-11-02T11:13:28.463Z,15.90
2018-11-02T11:15:57.544Z,15.50
2018-11-02T11:18:26.934Z,15.60
2018-11-02T11:20:56.054Z,15.40
2018-11-02T11:23:25.156Z,15.70
2018-11-02T11:25:54.281Z,15.50
2018-11-02T11:28:23.472Z,15.20
2018-11-02T11:30:52.717Z,15.60
2018-11-02T11:33:21.883Z,15.90
2018-11-02T11:35:51.106Z,17.60
2018-11-02T11:38:20.256Z,17.40
2018-11-02T11:40:49.352Z,18.30
2018-11-02T11:43:18.978Z,16.60
2018-11-02T11:45:48.165Z,16.50
2018-11-02T11:48:17.289Z,16.80
2018-11-02T11:50:46.485Z,16.80
2018-11-02T11:53:15.682Z,16.30
2018-11-02T11:55:44.868Z,15.80
2018-11-02T11:58:14.017Z,15.40
2018-11-02T12:00:44.301Z,15.10
2018-11-02T12:03:13.573Z,15.20
2018-11-02T12:05:43.753Z,15.20
2018-11-02T12:08:12.914Z,15.40
2018-11-02T12:10:42.072Z,14.90
2018-11-02T12:13:11.602Z,14.60
2018-11-02T12:15:40.812Z,14.70
2018-11-02T12:18:10.112Z,14.80
2018-11-02T12:20:39.244Z,15.60
2018-11-02T12:23:08.789Z,16.40
2018-11-02T12:25:37.931Z,16.70
2018-11-02T12:28:07.908Z,16.20
2018-11-02T12:30:37.130Z,15.90
2018-11-02T12:33:06.657Z,15.80
2018-11-02T12:35:36.241Z,14.90
2018-11-02T12:38:05.473Z,14.50
2018-11-02T12:40:34.645Z,14.70
2018-11-02T12:43:03.862Z,14.50
2018-11-02T12:45:34.361Z,14.60
2018-11-02T12:48:03.567Z,14.80
2018-11-02T12:50:32.749Z,14.80
2018-11-02T12:53:01.809Z,14.80
2018-11-02T12:55:31.001Z,15.00
2018-11-02T12:58:00.137Z,15.00
2018-11-02T13:00:29.533Z,15.10
2018-11-02T13:02:58.959Z,14.80
2018-11-02T13:05:28.209Z,15.30
2018-11-02T13:07:57.409Z,15.70
2018-11-02T13:10:26.537Z,15.80
2018-11-02T13:12:55.734Z,16.70
2018-11-02T13:15:25.367Z,17.10
2018-11-02T13:17:54.538Z,17.40
2018-11-02T13:20:23.942Z,17.10
2018-11-02T13:22:53.026Z,16.90
2018-11-02T13:25:23.088Z,16.90
2018-11-02T13:27:52.765Z,16.50
2018-11-02T13:30:21.996Z,16.00
2018-11-02T13:32:51.053Z,15.80
2018-11-02T13:35:21.223Z,15.10
2018-11-02T13:37:51.005Z,15.20
2018-11-02T13:40:20.285Z,15.30
2018-11-02T13:42:49.520Z,15.40
2018-11-02T13:45:19.445Z,14.70
2018-11-02T13:47:48.644Z,14.80
2018-11-02T13:50:18.308Z,15.00
2018-11-02T13:52:47.409Z,15.10
2018-11-02T13:55:16.561Z,14.70
2018-11-02T13:57:45.747Z,14.70
2018-11-02T14:00:16.875Z,14.90
2018-11-02T14:02:46.056Z,15.10
2018-11-02T14:05:16.532Z,15.20
2018-11-02T14:07:45.696Z,15.20
2018-11-02T14:10:14.981Z,15.40
2018-11-02T14:12:44.141Z,15.30
2018-11-02T14:15:14.604Z,15.20
2018-11-02T14:17:44.160Z,15.20
2018-11-02T14:20:14.281Z,14.60
2018-11-02T14:22:43.444Z,14.50
2018-11-02T14:25:14.952Z,14.60
2018-11-02T14:27:44.413Z,14.60
2018-11-02T14:30:16.885Z,14.50
2018-11-02T14:32:46.859Z,14.30
2018-11-02T14:35:15.969Z,14.10
2018-11-02T14:37:45.129Z,14.10
2018-11-02T14:40:14.233Z,14.10
2018-11-02T14:42:43.798Z,14.00
2018-11-02T14:45:15.805Z,13.90
2018-11-02T14:47:46.053Z,13.70
2018-11-02T14:50:15.361Z,13.60
2018-11-02T14:52:44.516Z,13.70
2018-11-02T14:55:13.649Z,13.80
2018-11-02T14:57:43.035Z,13.70
2018-11-02T15:00:12.633Z,13.50
2018-11-02T15:02:42.397Z,13.40
2018-11-02T15:05:13.028Z,13.50
2018-11-02T15:07:43.088Z,13.40
2018-11-02T15:10:12.291Z,13.20
2018-11-02T15:12:41.514Z,13.20
2018-11-02T15:15:10.820Z,13.20
2018-11-02T15:17:40.601Z,13.30
2018-11-02T15:20:12.723Z,13.30
2018-11-02T15:22:42.269Z,13.20
2018-11-02T15:25:11.476Z,13.10
2018-11-02T15:27:40.569Z,13.10
2018-11-02T15:30:12.657Z,13.20
2018-11-02T15:32:42.944Z,13.10
2018-11-02T15:35:12.568Z,13.00
2018-11-02T15:37:42.844Z,12.90
2018-11-02T15:40:13.241Z,12.80
2018-11-02T15:42:42.828Z,12.70
2018-11-02T15:45:14.650Z,12.60
2018-11-02T15:47:44.649Z,12.40
2018-11-02T15:50:14.228Z,12.30
2018-11-02T15:52:43.417Z,12.30
2018-11-02T15:55:12.885Z,12.20
2018-11-02T15:57:41.988Z,12.20
2018-11-02T16:00:19.449Z,12.20
2018-11-02T16:02:50.104Z,12.20
2018-11-02T16:05:19.420Z,12.00
2018-11-02T16:07:48.609Z,12.00
2018-11-02T16:10:18.225Z,11.90
2018-11-02T16:12:47.429Z,11.90
2018-11-02T16:15:16.737Z,11.90
2018-11-02T16:17:45.929Z,11.80
2018-11-02T16:20:16.205Z,11.80
2018-11-02T16:22:46.433Z,11.70
2018-11-02T16:25:15.649Z,11.60
2018-11-02T16:27:44.881Z,11.50
2018-11-02T16:30:14.331Z,11.50
2018-11-02T16:32:43.361Z,11.40
2018-11-02T16:35:12.825Z,11.40
2018-11-02T16:37:42.772Z,11.30
2018-11-02T16:40:14.556Z,11.30
2018-11-02T16:42:44.391Z,11.30
2018-11-02T16:45:14.269Z,11.20
2018-11-02T16:47:44.131Z,11.10
2018-11-02T16:50:14.361Z,11.10
2018-11-02T16:52:44.778Z,10.70
2018-11-02T16:55:13.933Z,10.60
2018-11-02T16:57:43.250Z,10.40
2018-11-02T17:00:15.473Z,10.40
2018-11-02T17:02:46.229Z,10.40
2018-11-02T17:05:15.805Z,10.40
2018-11-02T17:07:45.004Z,10.40
2018-11-02T17:10:15.366Z,10.40
2018-11-02T17:12:45.252Z,10.40
2018-11-02T17:15:15.355Z,10.40
2018-11-02T17:17:44.586Z,10.30
2018-11-02T17:20:14.959Z,10.30
2018-11-02T17:22:45.409Z,10.10
2018-11-02T17:25:14.907Z,10.00
2018-11-02T17:27:44.245Z,9.90
2018-11-02T17:30:15.977Z,10.00
2018-11-02T17:32:45.117Z,9.90
2018-11-02T17:35:14.177Z,9.90
2018-11-02T17:37:43.397Z,9.90
2018-11-02T17:40:13.853Z,9.90
2018-11-02T17:42:43.783Z,9.90
2018-11-02T17:45:13.084Z,9.90
2018-11-02T17:47:43.908Z,9.90
2018-11-02T17:50:14.384Z,9.90
2018-11-02T17:52:44.728Z,10.00
2018-11-02T17:55:13.906Z,10.00
2018-11-02T17:57:43.084Z,9.90
2018-11-02T18:00:13.526Z,10.00
2018-11-02T18:02:42.624Z,10.00
2018-11-02T18:05:12.240Z,10.00
2018-11-02T18:07:41.436Z,9.80
2018-11-02T18:10:12.318Z,9.90
2018-11-02T18:12:41.490Z,9.90
2018-11-02T18:15:11.732Z,9.90
2018-11-02T18:17:40.905Z,9.90
2018-11-02T18:20:12.892Z,9.80
2018-11-02T18:22:42.346Z,9.80
2018-11-02T18:25:11.597Z,9.60
2018-11-02T18:27:41.409Z,9.50
2018-11-02T18:30:12.008Z,9.50
2018-11-02T18:32:41.673Z,9.50
2018-11-02T18:35:11.311Z,9.50
2018-11-02T18:37:41.345Z,9.50
2018-11-02T18:40:12.688Z,9.50
2018-11-02T18:42:42.264Z,9.40
2018-11-02T18:45:13.081Z,9.50
2018-11-02T18:47:46.758Z,9.40
2018-11-02T18:50:17.581Z,9.40
2018-11-02T18:52:47.753Z,9.40
2018-11-02T18:55:17.200Z,9.30
2018-11-02T18:57:46.505Z,9.30
2018-11-02T19:00:15.986Z,9.20
2018-11-02T19:02:45.144Z,9.10
2018-11-02T19:05:16.351Z,9.10
2018-11-02T19:07:45.693Z,9.10
2018-11-02T19:10:14.852Z,9.00
2018-11-02T19:12:44.685Z,8.80
2018-11-02T19:15:19.166Z,8.80
2018-11-02T19:17:48.333Z,8.80
2018-11-02T19:20:17.565Z,8.70
2018-11-02T19:22:46.681Z,8.70
2018-11-02T19:25:16.576Z,8.60
2018-11-02T19:27:46.438Z,8.60
2018-11-02T19:30:16.188Z,8.50
2018-11-02T19:32:45.361Z,8.50
2018-11-02T19:35:15.107Z,8.50
2018-11-02T19:37:44.613Z,8.60
2018-11-02T19:40:15.005Z,8.60
2018-11-02T19:42:44.304Z,8.50
2018-11-02T19:45:13.819Z,8.50
2018-11-02T19:47:48.369Z,8.50
2018-11-02T19:50:19.117Z,8.40
2018-11-02T19:52:48.265Z,8.40
2018-11-02T19:55:17.534Z,8.30
2018-11-02T19:57:46.636Z,8.20
2018-11-02T20:00:16.701Z,8.20
2018-11-02T20:02:46.399Z,8.10
2018-11-02T20:05:17.640Z,8.00
2018-11-02T20:07:47.205Z,7.90
2018-11-02T20:10:17.709Z,7.80
2018-11-02T20:12:47.589Z,7.70
2018-11-02T20:15:17.395Z,7.60
2018-11-02T20:17:46.638Z,7.50
2018-11-02T20:20:16.712Z,7.50
2018-11-02T20:22:45.991Z,7.30
2018-11-02T20:25:16.780Z,7.30
2018-11-02T20:27:45.960Z,7.20
2018-11-02T20:30:16.822Z,7.00
2018-11-02T20:32:46.195Z,7.00
2018-11-02T20:35:15.610Z,7.00
2018-11-02T20:37:44.723Z,6.90
2018-11-02T20:40:16.556Z,6.80
2018-11-02T20:42:45.881Z,6.80
2018-11-02T20:45:15.591Z,6.70
2018-11-02T20:47:53.015Z,6.70
2018-11-02T20:50:22.156Z,6.70
2018-11-02T20:52:51.801Z,6.60
2018-11-02T20:55:21.189Z,6.60
2018-11-02T20:57:50.309Z,6.60
2018-11-02T21:00:22.448Z,6.60
2018-11-02T21:02:51.814Z,6.60
2018-11-02T21:05:21.842Z,6.60
2018-11-02T21:07:51.632Z,6.50
2018-11-02T21:10:21.503Z,6.50
2018-11-02T21:12:50.793Z,6.50
2018-11-02T21:15:22.127Z,6.60
2018-11-02T21:17:51.834Z,6.60
2018-11-02T21:20:22.297Z,6.60
2018-11-02T21:22:51.787Z,6.50
2018-11-02T21:25:20.960Z,6.50
2018-11-02T21:27:50.910Z,6.50
2018-11-02T21:30:23.296Z,6.40
2018-11-02T21:32:53.237Z,6.40
2018-11-02T21:35:23.101Z,6.40
2018-11-02T21:37:52.521Z,6.30
2018-11-02T21:40:22.790Z,6.30
2018-11-02T21:42:51.944Z,6.20
2018-11-02T21:45:22.401Z,6.20
2018-11-02T21:47:52.218Z,6.20
2018-11-02T21:50:21.521Z,6.20
2018-11-02T21:52:50.661Z,6.20
2018-11-02T21:55:19.770Z,6.20
2018-11-02T21:57:49.464Z,6.20
2018-11-02T22:00:20.271Z,6.20
2018-11-02T22:02:49.972Z,6.20
2018-11-02T22:05:19.169Z,6.20
2018-11-02T22:07:49.236Z,6.10
2018-11-02T22:10:18.793Z,6.10
2018-11-02T22:12:48.497Z,6.10
2018-11-02T22:15:18.068Z,6.10
2018-11-02T22:17:47.201Z,6.00
2018-11-02T22:20:17.013Z,5.90
2018-11-02T22:22:46.465Z,5.80
2018-11-02T22:25:16.068Z,5.80
2018-11-02T22:27:45.220Z,5.80
2018-11-02T22:30:15.676Z,5.70
2018-11-02T22:32:44.910Z,5.70
2018-11-02T22:35:14.703Z,5.60
2018-11-02T22:37:44.370Z,5.60
2018-11-02T22:40:14.166Z,5.50
2018-11-02T22:42:43.878Z,5.50
2018-11-02T22:45:14.129Z,5.40
2018-11-02T22:47:47.405Z,5.40
2018-11-02T22:50:16.698Z,5.40
2018-11-02T22:52:45.945Z,5.10
2018-11-02T22:55:15.557Z,4.80
2018-11-02T22:57:44.744Z,4.80
2018-11-02T23:00:16.633Z,4.90
2018-11-02T23:02:46.662Z,4.90
2018-11-02T23:05:16.487Z,4.90
2018-11-02T23:07:45.935Z,4.90
2018-11-02T23:10:15.045Z,4.90
2018-11-02T23:12:44.204Z,4.90
2018-11-02T23:15:13.697Z,4.80
2018-11-02T23:17:43.078Z,4.90
2018-11-02T23:20:13.780Z,4.80
2018-11-02T23:22:43.137Z,4.80
2018-11-02T23:25:12.789Z,4.70
2018-11-02T23:27:43.216Z,4.60
2018-11-02T23:30:12.805Z,4.60
2018-11-02T23:32:42.017Z,4.50
2018-11-02T23:35:11.196Z,4.50
2018-11-02T23:37:40.397Z,4.40
2018-11-02T23:40:11.013Z,4.40
2018-11-02T23:42:40.406Z,4.40
2018-11-02T23:45:11.034Z,4.40
2018-11-02T23:47:44.329Z,4.40
2018-11-02T23:50:13.504Z,4.50
2018-11-02T23:52:42.636Z,4.50
2018-11-02T23:55:11.756Z,4.40
2018-11-02T23:57:40.963Z,4.40
